sensor_id;sensor_type;location;lat;lon;timestamp;temperature;humidity
38325;DHT22;24126;52.672;13.622;2023-08-08T00:01:10;19.80;59.60
38325;DHT22;24126;52.672;13.622;2023-08-08T00:03:37;19.80;59.30
38325;DHT22;24126;52.672;13.622;2023-08-08T00:06:04;19.90;59.40
38325;DHT22;24126;52.672;13.622;2023-08-08T00:08:31;19.80;59.40
38325;DHT22;24126;52.672;13.622;2023-08-08T00:10:58;19.80;59.40
38325;DHT22;24126;52.672;13.622;2023-08-08T00:13:25;19.70;59.30
38325;DHT22;24126;52.672;13.622;2023-08-08T00:15:52;19.70;59.30
38325;DHT22;24126;52.672;13.622;2023-08-08T00:18:19;19.70;59.40
38325;DHT22;24126;52.672;13.622;2023-08-08T00:20:46;19.70;59.20
38325;DHT22;24126;52.672;13.622;2023-08-08T00:23:13;19.60;59.20
38325;DHT22;24126;52.672;13.622;2023-08-08T00:25:40;19.60;59.20
38325;DHT22;24126;52.672;13.622;2023-08-08T00:28:07;19.50;59.30
38325;DHT22;24126;52.672;13.622;2023-08-08T00:30:34;19.50;59.30
38325;DHT22;24126;52.672;13.622;2023-08-08T00:33:03;19.50;59.30
38325;DHT22;24126;52.672;13.622;2023-08-08T00:35:34;19.40;59.40
38325;DHT22;24126;52.672;13.622;2023-08-08T00:38:01;19.40;59.50
38325;DHT22;24126;52.672;13.622;2023-08-08T00:40:28;19.40;59.50
38325;DHT22;24126;52.672;13.622;2023-08-08T00:42:55;19.40;59.60
38325;DHT22;24126;52.672;13.622;2023-08-08T00:45:22;19.30;59.70
38325;DHT22;24126;52.672;13.622;2023-08-08T00:47:50;19.30;59.90
38325;DHT22;24126;52.672;13.622;2023-08-08T00:50:17;19.20;59.90
38325;DHT22;24126;52.672;13.622;2023-08-08T00:52:44;19.20;59.90
38325;DHT22;24126;52.672;13.622;2023-08-08T00:55:12;19.20;60.10
38325;DHT22;24126;52.672;13.622;2023-08-08T00:57:40;19.10;60.10
38325;DHT22;24126;52.672;13.622;2023-08-08T01:00:07;19.10;60.10
38325;DHT22;24126;52.672;13.622;2023-08-08T01:02:36;19.10;60.20
38325;DHT22;24126;52.672;13.622;2023-08-08T01:05:03;19.10;60.10
38325;DHT22;24126;52.672;13.622;2023-08-08T01:07:52;19.10;60.20
38325;DHT22;24126;52.672;13.622;2023-08-08T01:12:55;19.10;60.30
38325;DHT22;24126;52.672;13.622;2023-08-08T01:15:25;19.10;60.30
38325;DHT22;24126;52.672;13.622;2023-08-08T01:17:52;19.10;60.30
38325;DHT22;24126;52.672;13.622;2023-08-08T01:20:20;19.10;60.30
38325;DHT22;24126;52.672;13.622;2023-08-08T01:25:39;19.00;60.20
38325;DHT22;24126;52.672;13.622;2023-08-08T01:28:07;19.00;60.20
38325;DHT22;24126;52.672;13.622;2023-08-08T01:30:34;19.00;60.30
38325;DHT22;24126;52.672;13.622;2023-08-08T01:33:01;19.00;60.30
38325;DHT22;24126;52.672;13.622;2023-08-08T01:35:29;19.00;60.20
38325;DHT22;24126;52.672;13.622;2023-08-08T01:37:59;19.00;60.20
38325;DHT22;24126;52.672;13.622;2023-08-08T01:40:27;19.00;60.30
38325;DHT22;24126;52.672;13.622;2023-08-08T01:42:56;19.00;60.30
38325;DHT22;24126;52.672;13.622;2023-08-08T01:45:23;19.00;60.20
38325;DHT22;24126;52.672;13.622;2023-08-08T01:47:51;19.00;60.10
38325;DHT22;24126;52.672;13.622;2023-08-08T01:50:19;19.00;60.10
38325;DHT22;24126;52.672;13.622;2023-08-08T01:52:47;19.00;60.00
38325;DHT22;24126;52.672;13.622;2023-08-08T01:55:14;19.00;59.80
38325;DHT22;24126;52.672;13.622;2023-08-08T01:57:41;19.00;59.80
38325;DHT22;24126;52.672;13.622;2023-08-08T02:00:08;19.00;59.70
38325;DHT22;24126;52.672;13.622;2023-08-08T02:02:42;19.00;59.60
38325;DHT22;24126;52.672;13.622;2023-08-08T02:05:09;19.00;59.50
38325;DHT22;24126;52.672;13.622;2023-08-08T02:07:36;19.00;59.50
38325;DHT22;24126;52.672;13.622;2023-08-08T02:10:03;19.00;59.40
38325;DHT22;24126;52.672;13.622;2023-08-08T02:12:31;19.00;59.10
38325;DHT22;24126;52.672;13.622;2023-08-08T02:14:58;19.00;59.10
38325;DHT22;24126;52.672;13.622;2023-08-08T02:17:26;18.90;59.20
38325;DHT22;24126;52.672;13.622;2023-08-08T02:19:53;18.90;59.10
38325;DHT22;24126;52.672;13.622;2023-08-08T02:22:20;19.00;59.20
38325;DHT22;24126;52.672;13.622;2023-08-08T02:24:47;18.90;59.20
38325;DHT22;24126;52.672;13.622;2023-08-08T02:27:14;18.90;59.90
38325;DHT22;24126;52.672;13.622;2023-08-08T02:29:41;18.90;59.10
38325;DHT22;24126;52.672;13.622;2023-08-08T02:32:08;18.90;59.20
38325;DHT22;24126;52.672;13.622;2023-08-08T02:34:35;18.90;59.20
38325;DHT22;24126;52.672;13.622;2023-08-08T02:37:02;18.90;59.20
38325;DHT22;24126;52.672;13.622;2023-08-08T02:39:29;18.90;59.40
38325;DHT22;24126;52.672;13.622;2023-08-08T02:41:56;18.90;59.30
38325;DHT22;24126;52.672;13.622;2023-08-08T02:44:24;18.90;59.20
38325;DHT22;24126;52.672;13.622;2023-08-08T02:46:51;18.90;59.30
38325;DHT22;24126;52.672;13.622;2023-08-08T02:49:18;18.90;59.30
38325;DHT22;24126;52.672;13.622;2023-08-08T02:51:45;18.90;59.40
38325;DHT22;24126;52.672;13.622;2023-08-08T02:54:13;18.90;59.30
38325;DHT22;24126;52.672;13.622;2023-08-08T02:56:42;18.90;59.40
38325;DHT22;24126;52.672;13.622;2023-08-08T02:59:10;18.90;59.40
38325;DHT22;24126;52.672;13.622;2023-08-08T03:01:37;18.90;59.40
38325;DHT22;24126;52.672;13.622;2023-08-08T03:04:08;18.80;59.50
38325;DHT22;24126;52.672;13.622;2023-08-08T03:06:35;18.80;59.50
38325;DHT22;24126;52.672;13.622;2023-08-08T03:09:03;18.80;59.80
38325;DHT22;24126;52.672;13.622;2023-08-08T03:11:31;18.80;59.80
38325;DHT22;24126;52.672;13.622;2023-08-08T03:13:58;18.80;59.90
38325;DHT22;24126;52.672;13.622;2023-08-08T03:16:25;18.70;60.00
38325;DHT22;24126;52.672;13.622;2023-08-08T03:18:54;18.70;60.00
38325;DHT22;24126;52.672;13.622;2023-08-08T03:21:22;18.70;60.20
38325;DHT22;24126;52.672;13.622;2023-08-08T03:23:50;18.70;60.30
38325;DHT22;24126;52.672;13.622;2023-08-08T03:26:17;18.70;60.50
38325;DHT22;24126;52.672;13.622;2023-08-08T03:28:45;18.60;60.70
38325;DHT22;24126;52.672;13.622;2023-08-08T03:31:16;18.60;60.90
38325;DHT22;24126;52.672;13.622;2023-08-08T03:33:44;18.60;61.00
38325;DHT22;24126;52.672;13.622;2023-08-08T03:36:12;18.60;61.20
38325;DHT22;24126;52.672;13.622;2023-08-08T03:38:39;18.50;61.30
38325;DHT22;24126;52.672;13.622;2023-08-08T03:41:10;18.50;61.40
38325;DHT22;24126;52.672;13.622;2023-08-08T03:43:37;18.50;61.60
38325;DHT22;24126;52.672;13.622;2023-08-08T03:46:04;18.50;61.80
38325;DHT22;24126;52.672;13.622;2023-08-08T03:48:32;18.50;62.00
38325;DHT22;24126;52.672;13.622;2023-08-08T03:50:59;18.50;62.10
38325;DHT22;24126;52.672;13.622;2023-08-08T03:53:26;18.50;62.20
38325;DHT22;24126;52.672;13.622;2023-08-08T03:55:53;18.50;62.40
38325;DHT22;24126;52.672;13.622;2023-08-08T03:58:20;18.50;62.50
38325;DHT22;24126;52.672;13.622;2023-08-08T04:00:47;18.50;62.60
38325;DHT22;24126;52.672;13.622;2023-08-08T04:03:15;18.50;62.60
38325;DHT22;24126;52.672;13.622;2023-08-08T04:05:46;18.50;62.80
38325;DHT22;24126;52.672;13.622;2023-08-08T04:08:14;18.50;62.80
38325;DHT22;24126;52.672;13.622;2023-08-08T04:10:42;18.50;63.10
38325;DHT22;24126;52.672;13.622;2023-08-08T04:13:09;18.50;63.10
38325;DHT22;24126;52.672;13.622;2023-08-08T04:15:36;18.50;63.20
38325;DHT22;24126;52.672;13.622;2023-08-08T04:18:04;18.60;63.30
38325;DHT22;24126;52.672;13.622;2023-08-08T04:20:32;18.60;63.40
38325;DHT22;24126;52.672;13.622;2023-08-08T04:23:00;18.60;63.40
38325;DHT22;24126;52.672;13.622;2023-08-08T04:25:27;18.60;63.50
38325;DHT22;24126;52.672;13.622;2023-08-08T04:27:54;18.60;63.60
38325;DHT22;24126;52.672;13.622;2023-08-08T04:30:21;18.60;63.60
38325;DHT22;24126;52.672;13.622;2023-08-08T04:32:49;18.70;63.60
38325;DHT22;24126;52.672;13.622;2023-08-08T04:35:16;18.70;63.60
38325;DHT22;24126;52.672;13.622;2023-08-08T04:37:43;18.70;63.70
38325;DHT22;24126;52.672;13.622;2023-08-08T04:40:10;18.70;63.80
38325;DHT22;24126;52.672;13.622;2023-08-08T04:42:37;18.70;63.80
38325;DHT22;24126;52.672;13.622;2023-08-08T04:45:05;18.70;63.80
38325;DHT22;24126;52.672;13.622;2023-08-08T04:47:32;18.70;64.10
38325;DHT22;24126;52.672;13.622;2023-08-08T04:49:59;18.70;64.00
38325;DHT22;24126;52.672;13.622;2023-08-08T04:52:26;18.80;64.10
38325;DHT22;24126;52.672;13.622;2023-08-08T04:54:53;18.80;64.10
38325;DHT22;24126;52.672;13.622;2023-08-08T04:57:20;18.80;64.20
38325;DHT22;24126;52.672;13.622;2023-08-08T04:59:47;18.90;64.30
38325;DHT22;24126;52.672;13.622;2023-08-08T05:02:15;18.90;64.40
38325;DHT22;24126;52.672;13.622;2023-08-08T05:04:42;18.90;64.30
38325;DHT22;24126;52.672;13.622;2023-08-08T05:07:09;19.00;64.30
38325;DHT22;24126;52.672;13.622;2023-08-08T05:09:36;19.10;64.20
38325;DHT22;24126;52.672;13.622;2023-08-08T05:12:08;19.20;64.30
38325;DHT22;24126;52.672;13.622;2023-08-08T05:14:35;19.30;64.00
38325;DHT22;24126;52.672;13.622;2023-08-08T05:17:02;19.40;63.60
38325;DHT22;24126;52.672;13.622;2023-08-08T05:19:29;19.50;63.80
38325;DHT22;24126;52.672;13.622;2023-08-08T05:21:56;19.40;63.80
38325;DHT22;24126;52.672;13.622;2023-08-08T05:24:23;19.40;63.70
38325;DHT22;24126;52.672;13.622;2023-08-08T05:26:50;19.40;63.70
38325;DHT22;24126;52.672;13.622;2023-08-08T05:29:19;19.50;63.90
38325;DHT22;24126;52.672;13.622;2023-08-08T05:31:46;19.50;64.00
38325;DHT22;24126;52.672;13.622;2023-08-08T05:34:13;19.60;63.90
38325;DHT22;24126;52.672;13.622;2023-08-08T05:36:40;19.60;63.80
38325;DHT22;24126;52.672;13.622;2023-08-08T05:39:07;19.70;63.90
38325;DHT22;24126;52.672;13.622;2023-08-08T05:41:35;19.80;63.70
38325;DHT22;24126;52.672;13.622;2023-08-08T05:44:02;19.90;63.60
38325;DHT22;24126;52.672;13.622;2023-08-08T05:46:29;19.90;63.30
38325;DHT22;24126;52.672;13.622;2023-08-08T05:48:56;20.00;63.40
38325;DHT22;24126;52.672;13.622;2023-08-08T05:51:23;20.10;64.20
38325;DHT22;24126;52.672;13.622;2023-08-08T05:53:50;20.20;63.40
38325;DHT22;24126;52.672;13.622;2023-08-08T05:56:17;20.30;63.40
38325;DHT22;24126;52.672;13.622;2023-08-08T05:58:48;20.40;63.10
38325;DHT22;24126;52.672;13.622;2023-08-08T06:01:15;20.40;62.70
38325;DHT22;24126;52.672;13.622;2023-08-08T06:03:42;20.50;62.80
38325;DHT22;24126;52.672;13.622;2023-08-08T06:06:10;20.50;62.80
38325;DHT22;24126;52.672;13.622;2023-08-08T06:08:37;20.40;62.70
38325;DHT22;24126;52.672;13.622;2023-08-08T06:11:04;20.50;62.80
38325;DHT22;24126;52.672;13.622;2023-08-08T06:13:31;20.50;62.70
38325;DHT22;24126;52.672;13.622;2023-08-08T06:15:58;20.50;62.90
38325;DHT22;24126;52.672;13.622;2023-08-08T06:18:26;20.50;62.90
38325;DHT22;24126;52.672;13.622;2023-08-08T06:20:54;20.40;63.00
38325;DHT22;24126;52.672;13.622;2023-08-08T06:23:21;20.40;63.30
38325;DHT22;24126;52.672;13.622;2023-08-08T06:25:48;20.50;63.30
38325;DHT22;24126;52.672;13.622;2023-08-08T06:28:15;20.50;63.30
38325;DHT22;24126;52.672;13.622;2023-08-08T06:30:42;20.50;63.30
38325;DHT22;24126;52.672;13.622;2023-08-08T06:33:09;20.60;63.30
38325;DHT22;24126;52.672;13.622;2023-08-08T06:35:36;20.60;63.20
38325;DHT22;24126;52.672;13.622;2023-08-08T06:38:03;20.70;63.30
38325;DHT22;24126;52.672;13.622;2023-08-08T06:40:30;20.70;63.00
38325;DHT22;24126;52.672;13.622;2023-08-08T06:42:57;20.70;62.80
38325;DHT22;24126;52.672;13.622;2023-08-08T06:45:24;20.70;62.80
38325;DHT22;24126;52.672;13.622;2023-08-08T06:47:51;20.80;62.70
38325;DHT22;24126;52.672;13.622;2023-08-08T06:50:18;20.90;62.70
38325;DHT22;24126;52.672;13.622;2023-08-08T06:52:46;20.90;62.60
38325;DHT22;24126;52.672;13.622;2023-08-08T06:55:13;21.00;62.40
38325;DHT22;24126;52.672;13.622;2023-08-08T06:57:40;21.10;62.40
38325;DHT22;24126;52.672;13.622;2023-08-08T07:00:07;21.20;62.60
38325;DHT22;24126;52.672;13.622;2023-08-08T07:02:35;21.20;62.50
38325;DHT22;24126;52.672;13.622;2023-08-08T07:05:05;21.20;62.00
38325;DHT22;24126;52.672;13.622;2023-08-08T07:07:33;21.20;61.80
38325;DHT22;24126;52.672;13.622;2023-08-08T07:10:00;21.20;61.80
38325;DHT22;24126;52.672;13.622;2023-08-08T07:12:29;21.20;61.90
38325;DHT22;24126;52.672;13.622;2023-08-08T07:14:56;21.20;62.10
38325;DHT22;24126;52.672;13.622;2023-08-08T07:17:23;21.20;61.80
38325;DHT22;24126;52.672;13.622;2023-08-08T07:19:50;21.20;61.90
38325;DHT22;24126;52.672;13.622;2023-08-08T07:22:17;21.20;62.00
38325;DHT22;24126;52.672;13.622;2023-08-08T07:24:44;21.20;61.90
38325;DHT22;24126;52.672;13.622;2023-08-08T07:27:11;21.30;62.10
38325;DHT22;24126;52.672;13.622;2023-08-08T07:29:38;21.30;61.90
38325;DHT22;24126;52.672;13.622;2023-08-08T07:32:05;21.40;61.90
38325;DHT22;24126;52.672;13.622;2023-08-08T07:34:32;21.50;61.60
38325;DHT22;24126;52.672;13.622;2023-08-08T07:36:59;21.60;62.00
38325;DHT22;24126;52.672;13.622;2023-08-08T07:39:26;21.70;61.70
38325;DHT22;24126;52.672;13.622;2023-08-08T07:41:53;21.80;61.10
38325;DHT22;24126;52.672;13.622;2023-08-08T07:44:20;21.90;61.30
38325;DHT22;24126;52.672;13.622;2023-08-08T07:46:47;22.00;61.00
38325;DHT22;24126;52.672;13.622;2023-08-08T07:49:14;22.10;60.60
38325;DHT22;24126;52.672;13.622;2023-08-08T07:51:42;22.10;60.50
38325;DHT22;24126;52.672;13.622;2023-08-08T07:54:09;22.20;60.60
38325;DHT22;24126;52.672;13.622;2023-08-08T07:56:36;22.20;60.40
38325;DHT22;24126;52.672;13.622;2023-08-08T07:59:04;22.20;60.20
38325;DHT22;24126;52.672;13.622;2023-08-08T08:01:31;22.10;59.90
38325;DHT22;24126;52.672;13.622;2023-08-08T08:03:58;22.20;60.10
38325;DHT22;24126;52.672;13.622;2023-08-08T08:06:25;22.20;60.40
38325;DHT22;24126;52.672;13.622;2023-08-08T08:08:52;22.30;60.40
38325;DHT22;24126;52.672;13.622;2023-08-08T08:11:19;22.40;60.20
38325;DHT22;24126;52.672;13.622;2023-08-08T08:13:46;22.50;59.90
38325;DHT22;24126;52.672;13.622;2023-08-08T08:16:13;22.50;59.50
38325;DHT22;24126;52.672;13.622;2023-08-08T08:18:40;22.50;59.50
38325;DHT22;24126;52.672;13.622;2023-08-08T08:21:08;22.50;59.60
38325;DHT22;24126;52.672;13.622;2023-08-08T08:23:35;22.50;59.30
38325;DHT22;24126;52.672;13.622;2023-08-08T08:26:02;22.50;59.60
38325;DHT22;24126;52.672;13.622;2023-08-08T08:28:29;22.50;59.40
38325;DHT22;24126;52.672;13.622;2023-08-08T08:30:56;22.50;59.60
38325;DHT22;24126;52.672;13.622;2023-08-08T08:33:23;22.50;59.60
38325;DHT22;24126;52.672;13.622;2023-08-08T08:35:50;22.50;59.30
38325;DHT22;24126;52.672;13.622;2023-08-08T08:38:17;22.50;59.50
38325;DHT22;24126;52.672;13.622;2023-08-08T08:40:44;22.40;59.40
38325;DHT22;24126;52.672;13.622;2023-08-08T08:43:14;22.40;59.30
38325;DHT22;24126;52.672;13.622;2023-08-08T08:45:42;22.40;59.50
38325;DHT22;24126;52.672;13.622;2023-08-08T08:48:10;22.40;59.50
38325;DHT22;24126;52.672;13.622;2023-08-08T08:50:37;22.40;59.80
38325;DHT22;24126;52.672;13.622;2023-08-08T08:53:05;22.40;59.20
38325;DHT22;24126;52.672;13.622;2023-08-08T08:55:32;22.40;59.20
38325;DHT22;24126;52.672;13.622;2023-08-08T08:57:59;22.30;59.50
38325;DHT22;24126;52.672;13.622;2023-08-08T09:00:26;22.30;59.90
38325;DHT22;24126;52.672;13.622;2023-08-08T09:02:54;22.30;59.90
38325;DHT22;24126;52.672;13.622;2023-08-08T09:05:21;22.40;60.00
38325;DHT22;24126;52.672;13.622;2023-08-08T09:07:49;22.40;59.70
38325;DHT22;24126;52.672;13.622;2023-08-08T09:10:17;22.40;59.70
38325;DHT22;24126;52.672;13.622;2023-08-08T09:12:44;22.50;59.60
38325;DHT22;24126;52.672;13.622;2023-08-08T09:15:12;22.60;59.40
38325;DHT22;24126;52.672;13.622;2023-08-08T09:17:42;22.70;59.40
38325;DHT22;24126;52.672;13.622;2023-08-08T09:20:11;22.80;59.30
38325;DHT22;24126;52.672;13.622;2023-08-08T09:22:38;23.00;59.40
38325;DHT22;24126;52.672;13.622;2023-08-08T09:25:05;23.20;59.00
38325;DHT22;24126;52.672;13.622;2023-08-08T09:27:34;23.40;58.60
38325;DHT22;24126;52.672;13.622;2023-08-08T09:30:02;23.50;58.10
38325;DHT22;24126;52.672;13.622;2023-08-08T09:32:30;23.50;57.40
38325;DHT22;24126;52.672;13.622;2023-08-08T09:34:57;23.40;57.10
38325;DHT22;24126;52.672;13.622;2023-08-08T09:37:25;23.30;57.20
38325;DHT22;24126;52.672;13.622;2023-08-08T09:39:59;23.20;57.10
38325;DHT22;24126;52.672;13.622;2023-08-08T09:42:26;23.10;57.30
38325;DHT22;24126;52.672;13.622;2023-08-08T09:44:54;23.00;57.50
38325;DHT22;24126;52.672;13.622;2023-08-08T09:47:22;22.90;57.80
38325;DHT22;24126;52.672;13.622;2023-08-08T09:49:50;22.80;58.00
38325;DHT22;24126;52.672;13.622;2023-08-08T09:52:17;22.90;58.30
38325;DHT22;24126;52.672;13.622;2023-08-08T09:54:44;23.00;58.60
38325;DHT22;24126;52.672;13.622;2023-08-08T09:57:11;23.10;58.80
38325;DHT22;24126;52.672;13.622;2023-08-08T09:59:39;23.30;58.40
38325;DHT22;24126;52.672;13.622;2023-08-08T10:02:06;23.40;57.90
38325;DHT22;24126;52.672;13.622;2023-08-08T10:04:37;23.50;57.80
38325;DHT22;24126;52.672;13.622;2023-08-08T10:07:04;23.60;57.70
38325;DHT22;24126;52.672;13.622;2023-08-08T10:09:31;23.60;57.60
38325;DHT22;24126;52.672;13.622;2023-08-08T10:11:59;23.80;58.10
38325;DHT22;24126;52.672;13.622;2023-08-08T10:14:31;24.00;58.00
38325;DHT22;24126;52.672;13.622;2023-08-08T10:16:58;24.20;57.00
38325;DHT22;24126;52.672;13.622;2023-08-08T10:19:25;24.30;56.30
38325;DHT22;24126;52.672;13.622;2023-08-08T10:21:56;24.30;55.30
38325;DHT22;24126;52.672;13.622;2023-08-08T10:24:24;24.30;55.30
38325;DHT22;24126;52.672;13.622;2023-08-08T10:26:56;24.40;56.20
38325;DHT22;24126;52.672;13.622;2023-08-08T10:29:24;24.60;56.90
38325;DHT22;24126;52.672;13.622;2023-08-08T10:31:52;25.00;56.60
38325;DHT22;24126;52.672;13.622;2023-08-08T10:34:26;25.30;56.10
38325;DHT22;24126;52.672;13.622;2023-08-08T10:36:54;25.60;55.60
38325;DHT22;24126;52.672;13.622;2023-08-08T10:39:21;25.90;55.50
38325;DHT22;24126;52.672;13.622;2023-08-08T10:41:49;26.10;55.30
38325;DHT22;24126;52.672;13.622;2023-08-08T10:44:23;26.30;55.90
38325;DHT22;24126;52.672;13.622;2023-08-08T10:46:50;26.60;54.80
38325;DHT22;24126;52.672;13.622;2023-08-08T10:49:18;26.70;54.40
38325;DHT22;24126;52.672;13.622;2023-08-08T10:51:45;26.60;53.00
38325;DHT22;24126;52.672;13.622;2023-08-08T10:54:23;26.60;53.20
38325;DHT22;24126;52.672;13.622;2023-08-08T10:56:54;26.60;53.40
38325;DHT22;24126;52.672;13.622;2023-08-08T10:59:22;26.70;53.40
38325;DHT22;24126;52.672;13.622;2023-08-08T11:01:51;26.70;53.00
38325;DHT22;24126;52.672;13.622;2023-08-08T11:04:18;26.60;52.70
38325;DHT22;24126;52.672;13.622;2023-08-08T11:06:46;26.40;53.20
38325;DHT22;24126;52.672;13.622;2023-08-08T11:09:16;26.10;54.00
38325;DHT22;24126;52.672;13.622;2023-08-08T11:11:43;25.70;54.70
38325;DHT22;24126;52.672;13.622;2023-08-08T11:14:18;25.30;55.20
38325;DHT22;24126;52.672;13.622;2023-08-08T11:16:46;24.90;56.50
38325;DHT22;24126;52.672;13.622;2023-08-08T11:19:13;24.60;57.00
38325;DHT22;24126;52.672;13.622;2023-08-08T11:21:41;24.40;58.00
38325;DHT22;24126;52.672;13.622;2023-08-08T11:24:08;24.30;59.00
38325;DHT22;24126;52.672;13.622;2023-08-08T11:26:36;24.30;60.30
38325;DHT22;24126;52.672;13.622;2023-08-08T11:29:04;24.50;61.30
38325;DHT22;24126;52.672;13.622;2023-08-08T11:31:33;24.60;61.60
38325;DHT22;24126;52.672;13.622;2023-08-08T11:34:00;24.80;61.30
38325;DHT22;24126;52.672;13.622;2023-08-08T11:36:31;24.90;61.40
38325;DHT22;24126;52.672;13.622;2023-08-08T11:39:00;25.00;60.60
38325;DHT22;24126;52.672;13.622;2023-08-08T11:41:31;25.20;60.10
38325;DHT22;24126;52.672;13.622;2023-08-08T11:43:58;25.30;60.20
38325;DHT22;24126;52.672;13.622;2023-08-08T11:46:26;25.30;59.10
38325;DHT22;24126;52.672;13.622;2023-08-08T11:48:53;25.30;58.80
38325;DHT22;24126;52.672;13.622;2023-08-08T11:51:20;25.30;58.90
38325;DHT22;24126;52.672;13.622;2023-08-08T11:53:52;25.30;58.20
38325;DHT22;24126;52.672;13.622;2023-08-08T11:56:19;25.30;58.10
38325;DHT22;24126;52.672;13.622;2023-08-08T11:58:50;25.40;57.70
38325;DHT22;24126;52.672;13.622;2023-08-08T12:01:22;25.40;57.70
38325;DHT22;24126;52.672;13.622;2023-08-08T12:03:49;25.50;57.40
38325;DHT22;24126;52.672;13.622;2023-08-08T12:06:17;25.60;56.40
38325;DHT22;24126;52.672;13.622;2023-08-08T12:08:45;25.70;55.30
38325;DHT22;24126;52.672;13.622;2023-08-08T12:11:13;25.80;54.80
38325;DHT22;24126;52.672;13.622;2023-08-08T12:13:40;25.80;54.50
38325;DHT22;24126;52.672;13.622;2023-08-08T12:16:08;25.80;53.90
38325;DHT22;24126;52.672;13.622;2023-08-08T12:18:38;25.90;53.70
38325;DHT22;24126;52.672;13.622;2023-08-08T12:21:07;26.00;53.60
38325;DHT22;24126;52.672;13.622;2023-08-08T12:23:35;26.10;53.60
38325;DHT22;24126;52.672;13.622;2023-08-08T12:26:03;26.20;53.90
38325;DHT22;24126;52.672;13.622;2023-08-08T12:28:31;26.30;53.60
38325;DHT22;24126;52.672;13.622;2023-08-08T12:30:58;26.40;53.20
38325;DHT22;24126;52.672;13.622;2023-08-08T12:33:25;26.30;52.10
38325;DHT22;24126;52.672;13.622;2023-08-08T12:35:52;26.20;52.70
38325;DHT22;24126;52.672;13.622;2023-08-08T12:38:19;26.10;52.90
38325;DHT22;24126;52.672;13.622;2023-08-08T12:40:46;25.90;53.10
38325;DHT22;24126;52.672;13.622;2023-08-08T12:43:13;25.70;53.50
38325;DHT22;24126;52.672;13.622;2023-08-08T12:45:46;25.60;54.40
38325;DHT22;24126;52.672;13.622;2023-08-08T12:48:13;25.40;54.50
38325;DHT22;24126;52.672;13.622;2023-08-08T12:50:40;25.20;55.00
38325;DHT22;24126;52.672;13.622;2023-08-08T12:53:07;25.10;55.60
38325;DHT22;24126;52.672;13.622;2023-08-08T12:55:34;25.10;56.70
38325;DHT22;24126;52.672;13.622;2023-08-08T12:58:05;25.00;56.60
38325;DHT22;24126;52.672;13.622;2023-08-08T13:00:32;25.00;56.60
38325;DHT22;24126;52.672;13.622;2023-08-08T13:02:59;25.10;56.50
38325;DHT22;24126;52.672;13.622;2023-08-08T13:05:26;25.10;56.30
38325;DHT22;24126;52.672;13.622;2023-08-08T13:07:53;25.10;55.30
38325;DHT22;24126;52.672;13.622;2023-08-08T13:10:20;25.10;55.70
38325;DHT22;24126;52.672;13.622;2023-08-08T13:12:47;25.10;55.20
38325;DHT22;24126;52.672;13.622;2023-08-08T13:15:14;24.90;54.90
38325;DHT22;24126;52.672;13.622;2023-08-08T13:17:41;24.70;56.70
38325;DHT22;24126;52.672;13.622;2023-08-08T13:20:09;24.40;57.60
38325;DHT22;24126;52.672;13.622;2023-08-08T13:22:36;24.00;57.80
38325;DHT22;24126;52.672;13.622;2023-08-08T13:25:04;23.70;58.30
38325;DHT22;24126;52.672;13.622;2023-08-08T13:27:31;23.40;59.60
38325;DHT22;24126;52.672;13.622;2023-08-08T13:29:58;23.20;60.30
38325;DHT22;24126;52.672;13.622;2023-08-08T13:32:25;23.20;61.40
38325;DHT22;24126;52.672;13.622;2023-08-08T13:34:52;23.20;62.30
38325;DHT22;24126;52.672;13.622;2023-08-08T13:37:19;23.20;62.60
38325;DHT22;24126;52.672;13.622;2023-08-08T13:39:46;23.20;62.90
38325;DHT22;24126;52.672;13.622;2023-08-08T13:42:13;23.30;62.70
38325;DHT22;24126;52.672;13.622;2023-08-08T13:44:41;23.40;63.00
38325;DHT22;24126;52.672;13.622;2023-08-08T13:47:08;23.40;62.90
38325;DHT22;24126;52.672;13.622;2023-08-08T13:49:35;23.40;62.60
38325;DHT22;24126;52.672;13.622;2023-08-08T13:52:02;23.30;62.60
38325;DHT22;24126;52.672;13.622;2023-08-08T13:54:29;23.20;62.70
38325;DHT22;24126;52.672;13.622;2023-08-08T13:56:56;23.20;63.20
38325;DHT22;24126;52.672;13.622;2023-08-08T13:59:23;23.10;63.20
38325;DHT22;24126;52.672;13.622;2023-08-08T14:01:52;23.00;63.60
38325;DHT22;24126;52.672;13.622;2023-08-08T14:04:19;22.90;64.00
38325;DHT22;24126;52.672;13.622;2023-08-08T14:06:46;22.90;64.30
38325;DHT22;24126;52.672;13.622;2023-08-08T14:09:13;22.90;64.80
38325;DHT22;24126;52.672;13.622;2023-08-08T14:11:40;22.80;64.90
38325;DHT22;24126;52.672;13.622;2023-08-08T14:14:07;22.80;65.30
38325;DHT22;24126;52.672;13.622;2023-08-08T14:16:34;22.90;65.70
38325;DHT22;24126;52.672;13.622;2023-08-08T14:19:01;22.90;66.10
38325;DHT22;24126;52.672;13.622;2023-08-08T14:21:29;23.00;66.20
38325;DHT22;24126;52.672;13.622;2023-08-08T14:23:56;23.20;66.30
38325;DHT22;24126;52.672;13.622;2023-08-08T14:26:23;23.20;66.20
38325;DHT22;24126;52.672;13.622;2023-08-08T14:28:50;23.30;65.90
38325;DHT22;24126;52.672;13.622;2023-08-08T14:31:17;23.30;66.10
38325;DHT22;24126;52.672;13.622;2023-08-08T14:33:44;23.40;66.10
38325;DHT22;24126;52.672;13.622;2023-08-08T14:36:11;23.50;66.20
38325;DHT22;24126;52.672;13.622;2023-08-08T14:38:38;23.50;65.90
38325;DHT22;24126;52.672;13.622;2023-08-08T14:41:05;23.50;65.90
38325;DHT22;24126;52.672;13.622;2023-08-08T14:43:33;23.50;65.60
38325;DHT22;24126;52.672;13.622;2023-08-08T14:46:00;23.50;65.60
38325;DHT22;24126;52.672;13.622;2023-08-08T14:48:27;23.50;65.20
38325;DHT22;24126;52.672;13.622;2023-08-08T14:50:54;23.40;65.30
38325;DHT22;24126;52.672;13.622;2023-08-08T14:53:21;23.40;65.30
38325;DHT22;24126;52.672;13.622;2023-08-08T14:55:48;23.40;65.50
38325;DHT22;24126;52.672;13.622;2023-08-08T14:58:15;23.30;65.60
38325;DHT22;24126;52.672;13.622;2023-08-08T15:00:42;23.20;65.50
38325;DHT22;24126;52.672;13.622;2023-08-08T15:03:09;23.20;65.50
38325;DHT22;24126;52.672;13.622;2023-08-08T15:05:36;23.10;65.70
38325;DHT22;24126;52.672;13.622;2023-08-08T15:08:03;23.00;66.00
38325;DHT22;24126;52.672;13.622;2023-08-08T15:10:31;22.90;66.40
38325;DHT22;24126;52.672;13.622;2023-08-08T15:12:58;22.90;66.90
38325;DHT22;24126;52.672;13.622;2023-08-08T15:15:25;22.90;67.10
38325;DHT22;24126;52.672;13.622;2023-08-08T15:17:53;22.90;67.20
38325;DHT22;24126;52.672;13.622;2023-08-08T15:20:20;23.00;66.50
38325;DHT22;24126;52.672;13.622;2023-08-08T15:22:47;23.00;66.60